Time;durP1;ratioP1;P1;durP2;ratioP2;P2;SDS_P1;SDS_P2;PMS_P1;PMS_P2;Temp;Humidity;BMP_temperature;BMP_pressure;BME280_temperature;BME280_humidity;BME280_pressure;Samples;Min_cycle;Max_cycle;Signal;HPM_P1;HPM_P2
2022/10/29 00:01:04;;;;;;;36.05;12.85;;;;;;;10.99;79.31;99688.47;4921157;29;20046;-90
2022/10/29 00:03:30;;;;;;;36.17;13.53;;;;;;;11.03;79.31;99683.19;4903389;29;20044;-92
2022/10/29 00:05:58;;;;;;;28.95;12.93;;;;;;;11.36;79.10;99721.34;4919571;29;20142;-91
2022/10/29 00:08:26;;;;;;;33.53;13.43;;;;;;;11.32;78.94;99717.56;4945730;29;20142;-94
2022/10/29 00:10:52;;;;;;;27.50;12.63;;;;;;;11.06;79.28;99688.06;4924565;29;20047;-94
2022/10/29 00:14:18;;;;;;;31.90;12.93;;;;;;;11.39;79.08;99723.44;4926216;29;20047;-91
2022/10/29 00:16:52;;;;;;;27.63;12.25;;;;;;;11.40;78.98;99720.41;4949167;23;20150;-94
2022/10/29 00:19:18;;;;;;;25.10;13.00;;;;;;;10.99;79.24;99661.13;4888713;29;20081;-92
2022/10/29 00:22:05;;;;;;;29.05;14.07;;;;;;;10.87;79.72;99652.63;4888780;29;20450;-91
2022/10/29 00:24:56;;;;;;;28.95;13.18;;;;;;;11.34;79.81;99716.16;4899446;29;20045;-94
2022/10/29 00:27:22;;;;;;;26.23;12.35;;;;;;;11.20;79.67;99688.81;4888903;29;20143;-91
2022/10/29 00:33:24;;;;;;;31.17;11.90;;;;;;;10.81;80.24;99656.59;4965443;23;20437;-90
2022/10/29 00:36:36;;;;;;;23.80;12.20;;;;;;;11.27;80.59;99724.78;4964878;28;20502;-91
2022/10/29 00:41:35;;;;;;;27.50;11.30;;;;;;;11.04;80.04;99677.41;4977942;23;20451;-93
2022/10/29 00:48:15;;;;;;;19.35;10.57;;;;;;;11.20;79.88;99682.56;4963747;29;20132;-90
2022/10/29 00:50:45;;;;;;;18.58;9.35;;;;;;;11.13;79.29;99647.41;4933707;29;20039;-94
2022/10/29 00:53:25;;;;;;;26.02;11.05;;;;;;;11.15;79.32;99652.56;4945146;29;20039;-93
2022/10/29 00:55:52;;;;;;;21.58;10.80;;;;;;;11.15;79.40;99650.63;4930425;29;20043;-92
2022/10/29 00:58:19;;;;;;;24.02;11.43;;;;;;;11.15;78.76;99631.47;4924257;23;20067;-90
2022/10/29 01:00:45;;;;;;;20.45;10.15;;;;;;;11.53;78.82;99689.44;4928031;29;20048;-93
2022/10/29 01:03:11;;;;;;;17.47;9.93;;;;;;;11.19;78.47;99637.97;4926225;29;20063;-93
2022/10/29 01:05:39;;;;;;;19.70;10.80;;;;;;;11.25;78.39;99652.31;4911027;29;20473;-95
2022/10/29 01:08:05;;;;;;;25.85;10.65;;;;;;;11.41;78.67;99678.22;4912411;29;20091;-93
2022/10/29 01:11:10;;;;;;;23.67;10.80;;;;;;;11.62;78.30;99692.25;4942878;29;20048;-91
2022/10/29 01:13:54;;;;;;;20.70;10.52;;;;;;;11.43;77.88;99669.72;4886029;29;20577;-96
2022/10/29 01:16:39;;;;;;;17.55;10.00;;;;;;;11.40;78.04;99667.59;4891891;29;20052;-91
2022/10/29 01:19:19;;;;;;;21.63;10.82;;;;;;;11.24;78.23;99657.00;4922790;29;20044;-92
2022/10/29 01:21:51;;;;;;;19.23;9.63;;;;;;;10.94;78.40;99603.78;4910045;29;20046;-95
2022/10/29 01:24:50;;;;;;;19.55;9.95;;;;;;;11.40;78.37;99682.09;4910562;29;20047;-95
2022/10/29 01:27:47;;;;;;;21.83;10.50;;;;;;;11.38;78.22;99678.84;4948313;28;20057;-95
2022/10/29 01:34:34;;;;;;;20.55;10.45;;;;;;;11.29;77.54;99648.66;4905245;29;20087;-94
2022/10/29 01:37:50;;;;;;;19.27;10.20;;;;;;;11.34;77.41;99661.41;4903044;29;20051;-93
2022/10/29 01:40:27;;;;;;;21.15;10.82;;;;;;;11.12;77.78;99620.34;4902216;29;20107;-92
2022/10/29 01:43:02;;;;;;;;;;;;;;;11.15;77.95;99641.59;4887622;29;20043;-93
2022/10/29 01:46:31;;;;;;;18.48;9.38;;;;;;;10.87;78.07;99600.66;4918188;29;19974;-92
2022/10/29 01:52:44;;;;;;;21.70;10.30;;;;;;;11.13;77.45;99627.44;4952905;23;20056;-92
2022/10/29 02:03:13;;;;;;;20.27;9.93;;;;;;;11.07;76.66;99639.63;4902166;29;20048;-91
2022/10/29 02:06:24;;;;;;;22.65;9.77;;;;;;;11.09;76.38;99634.63;4891743;29;20081;-91
2022/10/29 02:09:31;;;;;;;22.55;10.27;;;;;;;11.12;76.53;99632.09;4904613;29;20136;-91
2022/10/29 02:12:21;;;;;;;19.02;11.05;;;;;;;10.91;76.11;99609.84;4890136;29;20416;-93
2022/10/29 02:15:31;;;;;;;22.27;11.32;;;;;;;10.68;76.29;99562.50;4894659;29;20053;-92
2022/10/29 02:18:07;;;;;;;24.60;10.07;;;;;;;10.66;76.89;99564.78;4878881;29;20060;-91
2022/10/29 02:20:34;;;;;;;23.80;10.87;;;;;;;10.60;77.03;99546.06;4880548;29;20100;-93
2022/10/29 02:23:00;;;;;;;26.98;13.40;;;;;;;10.64;78.06;99580.66;4849461;29;20052;-92
2022/10/29 02:25:27;;;;;;;33.03;13.68;;;;;;;10.67;78.50;99581.97;4879475;29;20037;-92
2022/10/29 02:28:07;;;;;;;33.05;12.48;;;;;;;10.76;78.73;99591.88;4878789;29;20060;-91
2022/10/29 02:30:37;;;;;;;21.90;10.90;;;;;;;10.40;79.36;99539.91;4911504;23;20057;-91
2022/10/29 02:33:03;;;;;;;26.40;11.68;;;;;;;10.74;79.10;99598.75;4958448;28;20078;-91
2022/10/29 02:35:29;;;;;;;21.50;11.43;;;;;;;10.47;79.65;99553.97;4943173;28;20043;-91
2022/10/29 02:37:59;;;;;;;26.08;11.00;;;;;;;10.34;79.10;99525.53;4954567;23;20027;-92
2022/10/29 02:40:25;;;;;;;19.23;9.63;;;;;;;10.58;79.38;99560.00;4931656;29;20071;-90
2022/10/29 02:42:53;;;;;;;22.13;10.85;;;;;;;10.47;79.16;99534.03;4889419;29;20119;-91
2022/10/29 02:45:19;;;;;;;22.63;10.88;;;;;;;10.56;79.22;99549.41;4885884;29;20071;-92
2022/10/29 02:47:45;;;;;;;19.73;9.90;;;;;;;10.54;79.73;99545.34;4902336;29;20119;-91
2022/10/29 02:50:11;;;;;;;20.35;10.18;;;;;;;10.33;80.00;99523.09;4904389;29;20494;-90
2022/10/29 02:52:38;;;;;;;26.00;10.10;;;;;;;10.55;79.87;99544.22;4890006;29;20099;-91
2022/10/29 02:55:05;;;;;;;;;;;;;;;10.78;79.88;99578.69;4921992;29;20048;-91
2022/10/29 02:57:31;;;;;;;20.05;9.85;;;;;;;10.32;80.38;99510.56;4902592;29;19918;-91
2022/10/29 02:59:57;;;;;;;17.75;9.25;;;;;;;10.30;80.72;99507.34;4905903;29;20142;-95
2022/10/29 03:02:23;;;;;;;22.95;9.60;;;;;;;10.27;80.37;99503.28;4937482;29;20048;-92
2022/10/29 03:04:49;;;;;;;18.40;9.97;;;;;;;10.39;80.91;99532.00;4906369;29;20040;-94
2022/10/29 03:07:15;;;;;;;21.63;9.98;;;;;;;10.44;80.88;99535.44;4931926;29;20032;-90
2022/10/29 03:09:41;;;;;;;19.83;10.05;;;;;;;10.46;80.83;99535.97;4921198;29;20573;-94
2022/10/29 03:12:08;;;;;;;19.70;10.23;;;;;;;10.63;80.82;99551.72;4922533;29;20421;-92
2022/10/29 03:14:40;;;;;;;23.40;10.00;;;;;;;10.78;80.96;99572.41;4921065;29;20137;-95
2022/10/29 03:17:31;;;;;;;18.67;9.38;;;;;;;10.76;80.94;99572.75;4889264;29;20040;-93
2022/10/29 03:20:13;;;;;;;16.13;9.73;;;;;;;10.68;80.80;99540.66;4889327;29;20642;-91
2022/10/29 03:22:42;;;;;;;18.73;9.60;;;;;;;10.66;80.62;99526.50;4920710;23;20055;-91
2022/10/29 03:25:09;;;;;;;18.10;10.13;;;;;;;10.62;80.55;99525.47;4957382;28;20046;-91
2022/10/29 03:28:44;;;;;;;19.35;8.77;;;;;;;10.86;80.65;99554.47;4960448;28;20077;-91
2022/10/29 03:31:14;;;;;;;17.05;8.90;;;;;;;10.90;80.63;99553.56;4958049;28;20049;-91
2022/10/29 03:33:40;;;;;;;19.38;9.95;;;;;;;10.57;80.85;99504.53;4944879;28;20042;-94
2022/10/29 03:36:07;;;;;;;23.50;9.35;;;;;;;10.89;80.71;99546.44;4918016;29;20071;-91
2022/10/29 03:38:34;;;;;;;15.98;8.38;;;;;;;10.63;80.38;99507.97;4870503;29;20082;-92
2022/10/29 03:41:00;;;;;;;12.97;8.50;;;;;;;10.85;80.19;99511.84;4884888;29;20044;-91
2022/10/29 03:43:55;;;;;;;18.27;8.80;;;;;;;10.91;80.64;99538.75;4884241;29;20039;-92
2022/10/29 03:46:33;;;;;;;13.57;8.00;;;;;;;10.54;80.49;99480.53;4884227;29;20051;-92
2022/10/29 03:48:59;;;;;;;18.33;7.93;;;;;;;10.58;80.30;99472.53;4900940;29;20078;-91
2022/10/29 03:51:27;;;;;;;13.13;8.45;;;;;;;10.65;80.04;99470.19;4884703;29;20498;-91
2022/10/29 03:53:57;;;;;;;14.70;8.20;;;;;;;10.80;79.98;99499.91;4900787;29;20081;-94
2022/10/29 03:56:35;;;;;;;15.52;8.68;;;;;;;10.56;80.28;99458.34;4902133;29;20044;-92
2022/10/29 03:59:02;;;;;;;16.80;8.45;;;;;;;10.89;80.30;99510.09;4885184;29;20036;-92
2022/10/29 04:01:28;;;;;;;;;;;;;;;11.04;80.31;99523.41;4915952;29;20426;-92
2022/10/29 04:04:05;;;;;;;14.43;7.77;;;;;;;10.96;80.49;99527.69;4884081;29;19919;-95
2022/10/29 04:06:31;;;;;;;14.00;7.78;;;;;;;10.70;80.83;99491.13;4967069;23;20102;-94
2022/10/29 04:09:23;;;;;;;14.30;7.95;;;;;;;11.02;80.37;99526.44;4933754;23;20082;-92
2022/10/29 04:11:49;;;;;;;15.93;7.75;;;;;;;10.55;80.43;99441.16;4904184;29;20044;-90
2022/10/29 04:14:15;;;;;;;16.65;8.07;;;;;;;10.78;80.25;99474.78;4936959;29;20039;-92
2022/10/29 04:16:41;;;;;;;15.70;8.50;;;;;;;10.91;80.14;99475.03;4921094;29;20048;-93
2022/10/29 04:19:13;;;;;;;13.85;7.47;;;;;;;11.03;79.70;99497.19;4920145;29;20074;-92
2022/10/29 04:21:39;;;;;;;14.07;7.38;;;;;;;10.78;79.70;99449.38;4939979;23;20047;-93
2022/10/29 04:27:06;;;;;;;17.42;7.88;;;;;;;10.86;79.63;99450.53;4847069;29;20523;-91
2022/10/29 04:29:33;;;;;;;16.55;7.65;;;;;;;10.88;79.57;99448.31;4863013;29;20045;-95
2022/10/29 04:31:59;;;;;;;13.50;7.15;;;;;;;10.86;79.67;99445.91;4880841;29;20041;-92
2022/10/29 04:34:26;;;;;;;14.53;7.93;;;;;;;10.82;79.18;99429.28;4864438;29;20049;-91
2022/10/29 04:36:52;;;;;;;13.27;7.35;;;;;;;10.96;79.33;99453.00;4880923;29;20376;-91
2022/10/29 04:39:48;;;;;;;12.70;7.72;;;;;;;11.14;79.43;99481.31;4864336;29;20045;-91
2022/10/29 04:42:14;;;;;;;10.23;6.90;;;;;;;10.90;79.69;99433.22;4858076;29;20143;-92
2022/10/29 04:44:42;;;;;;;12.40;6.72;;;;;;;11.14;79.50;99470.38;4850900;29;20682;-93
2022/10/29 04:47:08;;;;;;;12.25;7.35;;;;;;;10.78;79.28;99402.88;4916346;23;20055;-94
2022/10/29 04:49:34;;;;;;;13.70;7.70;;;;;;;10.81;79.24;99407.72;4926283;29;20115;-91
2022/10/29 04:52:01;;;;;;;12.65;6.93;;;;;;;11.11;79.19;99432.69;4918259;29;20051;-92
2022/10/29 04:54:28;;;;;;;15.25;8.35;;;;;;;11.35;78.88;99460.50;4933443;23;20063;-92
2022/10/29 04:57:10;;;;;;;12.98;7.75;;;;;;;11.17;78.46;99409.53;4921667;29;20047;-92
2022/10/29 04:59:40;;;;;;;13.10;7.57;;;;;;;11.12;77.98;99396.00;4933811;23;20055;-91
2022/10/29 05:02:06;;;;;;;14.25;7.15;;;;;;;11.03;77.95;99379.56;4886100;29;20041;-93
2022/10/29 05:04:32;;;;;;;10.73;7.43;;;;;;;11.27;78.25;99423.75;4886767;29;20071;-93
2022/10/29 05:07:20;;;;;;;12.57;7.28;;;;;;;11.06;78.12;99384.41;4879034;23;20119;-91
2022/10/29 05:09:46;;;;;;;11.88;7.22;;;;;;;11.22;77.34;99384.78;4912280;23;20048;-93
2022/10/29 05:12:12;;;;;;;13.23;7.82;;;;;;;11.20;77.59;99373.34;5009961;23;20629;-93
2022/10/29 05:14:38;;;;;;;11.48;7.43;;;;;;;11.38;77.68;99399.66;4935720;23;20055;-92
2022/10/29 05:17:07;;;;;;;14.63;7.65;;;;;;;11.37;77.46;99397.25;4924996;29;20047;-90
2022/10/29 05:19:42;;;;;;;13.40;7.90;;;;;;;11.44;77.51;99408.53;4933583;23;20128;-93
2022/10/29 05:22:09;;;;;;;13.50;7.03;;;;;;;11.31;77.93;99404.78;4959797;29;20039;-92
2022/10/29 05:24:38;;;;;;;15.57;8.00;;;;;;;11.03;78.04;99371.34;4942905;28;20049;-90
2022/10/29 05:27:07;;;;;;;15.60;8.30;;;;;;;11.23;77.95;99394.59;4944448;28;20043;-91
2022/10/29 05:29:37;;;;;;;15.32;8.40;;;;;;;11.35;78.08;99404.94;4938593;29;20134;-93
2022/10/29 05:32:06;;;;;;;15.47;7.63;;;;;;;11.26;77.65;99383.03;4925342;29;20051;-92
2022/10/29 05:34:32;;;;;;;14.27;7.95;;;;;;;11.60;77.35;99419.88;4926321;29;20046;-94
2022/10/29 05:36:58;;;;;;;15.23;8.48;;;;;;;11.29;77.30;99376.91;4927674;28;20035;-88
2022/10/29 05:39:24;;;;;;;14.70;8.02;;;;;;;11.47;76.80;99397.75;4942651;28;20042;-94
2022/10/29 05:41:50;;;;;;;17.77;9.27;;;;;;;11.71;76.73;99421.19;4908326;29;20050;-90
2022/10/29 05:44:29;;;;;;;18.77;10.77;;;;;;;11.74;76.32;99407.66;4925829;29;20039;-91
2022/10/29 05:46:55;;;;;;;15.23;8.52;;;;;;;11.79;76.42;99414.09;4942976;29;20145;-89
2022/10/29 05:49:22;;;;;;;17.63;9.90;;;;;;;11.49;76.90;99376.34;4925526;29;20164;-93
2022/10/29 05:52:16;;;;;;;15.40;9.38;;;;;;;11.72;77.07;99420.03;4961492;23;20082;-91
2022/10/29 05:54:42;;;;;;;24.77;14.25;;;;;;;11.39;77.07;99365.69;4925116;29;20075;-88
2022/10/29 05:58:11;;;;;;;26.73;14.45;;;;;;;11.78;77.01;99416.03;4948018;23;20117;-90
2022/10/29 06:00:44;;;;;;;24.40;13.88;;;;;;;11.76;76.84;99408.16;4923655;29;20142;-93
2022/10/29 06:03:17;;;;;;;24.77;13.70;;;;;;;11.57;76.98;99379.44;4916725;29;20044;-90
2022/10/29 06:05:45;;;;;;;18.50;11.63;;;;;;;11.57;77.09;99379.44;4887427;29;20112;-90
2022/10/29 06:08:14;;;;;;;15.15;9.02;;;;;;;11.70;76.96;99400.41;4886133;29;20056;-90
2022/10/29 06:11:04;;;;;;;16.02;7.53;;;;;;;11.48;77.04;99366.50;4887264;29;20047;-91
2022/10/29 06:13:30;;;;;;;13.23;8.07;;;;;;;11.35;77.13;99337.31;4930276;23;20405;-91
2022/10/29 06:16:37;;;;;;;19.50;8.17;;;;;;;11.78;76.89;99394.13;4956966;23;20050;-94
2022/10/29 06:19:03;;;;;;;15.07;7.38;;;;;;;11.39;76.43;99335.59;4961431;29;20043;-91
2022/10/29 06:21:29;;;;;;;12.57;7.47;;;;;;;11.74;76.47;99374.00;4925712;29;20059;-92
2022/10/29 06:23:56;;;;;;;14.02;8.45;;;;;;;11.51;76.60;99354.94;4939489;29;20052;-92
2022/10/29 06:26:51;;;;;;;15.20;8.17;;;;;;;11.86;76.73;99387.09;4938754;29;20047;-92
2022/10/29 06:29:17;;;;;;;11.40;6.70;;;;;;;11.39;76.54;99323.81;4960386;28;20420;-96
2022/10/29 06:31:44;;;;;;;12.52;7.20;;;;;;;11.69;76.53;99371.41;4962704;28;20042;-93
2022/10/29 06:34:10;;;;;;;15.93;7.27;;;;;;;11.36;76.38;99299.84;4961820;28;20053;-92
2022/10/29 06:36:37;;;;;;;11.97;6.83;;;;;;;11.68;76.44;99342.41;4947995;28;20041;-91
2022/10/29 06:39:04;;;;;;;11.00;7.18;;;;;;;11.56;76.52;99342.22;4945002;29;20134;-90
2022/10/29 06:41:30;;;;;;;16.75;7.53;;;;;;;11.48;76.98;99328.19;4925135;29;20046;-93
2022/10/29 06:43:57;;;;;;;13.25;8.27;;;;;;;11.20;77.13;99294.00;4937127;29;20122;-96
2022/10/29 06:46:42;;;;;;;13.50;7.90;;;;;;;11.56;77.34;99339.50;4924740;28;20039;-90
2022/10/29 06:49:08;;;;;;;17.30;8.70;;;;;;;11.49;77.09;99331.75;4947742;29;20061;-91
2022/10/29 06:51:50;;;;;;;20.45;11.25;;;;;;;11.37;77.11;99304.19;4913312;28;20039;-90
2022/10/29 06:54:19;;;;;;;24.67;13.88;;;;;;;11.40;76.83;99287.94;4925070;28;20043;-93
2022/10/29 06:56:52;;;;;;;19.73;11.90;;;;;;;11.40;76.68;99282.44;4949983;28;20709;-93
2022/10/29 06:59:23;;;;;;;16.88;7.53;;;;;;;11.42;76.64;99304.03;4945659;28;20420;-89
2022/10/29 07:02:18;;;;;;;13.15;7.65;;;;;;;11.71;76.71;99341.75;4976889;23;20082;-89
2022/10/29 07:04:45;;;;;;;17.23;7.23;;;;;;;11.63;76.83;99343.38;4926177;29;20043;-92
2022/10/29 07:07:11;;;;;;;13.97;7.60;;;;;;;11.43;76.87;99306.44;4953187;29;20039;-92
2022/10/29 07:09:37;;;;;;;17.83;9.73;;;;;;;11.40;76.65;99296.13;4930199;29;20086;-93
2022/10/29 07:12:13;;;;;;;18.23;9.37;;;;;;;11.18;76.71;99263.41;4954159;29;20043;-88
2022/10/29 07:14:39;;;;;;;19.45;8.88;;;;;;;11.28;76.74;99280.31;4954322;28;20502;-88
2022/10/29 07:17:11;;;;;;;17.33;7.47;;;;;;;11.56;76.80;99317.59;4953062;28;20039;-88
2022/10/29 07:19:37;;;;;;;13.90;7.50;;;;;;;11.39;76.47;99278.13;4954690;29;20082;-87
2022/10/29 07:22:06;;;;;;;14.97;7.63;;;;;;;11.60;76.46;99319.38;4936761;29;20059;-88
2022/10/29 07:25:01;;;;;;;15.18;7.18;;;;;;;11.35;76.12;99290.00;4936484;29;20478;-90
2022/10/29 07:27:29;;;;;;;16.13;7.85;;;;;;;11.52;76.71;99322.88;4844722;29;20053;-88
2022/10/29 07:29:56;;;;;;;15.63;7.97;;;;;;;11.54;76.36;99312.44;4875016;29;20583;-88
2022/10/29 07:32:22;;;;;;;;;;;;;;;11.53;76.47;99308.09;4861822;29;20171;-93
2022/10/29 07:35:16;;;;;;;;;;;;;;;11.60;76.65;99302.13;4860386;29;19923;-86
2022/10/29 07:38:19;;;;;;;18.27;7.40;;;;;;;11.51;76.49;99300.19;4859483;29;20006;-88
2022/10/29 07:40:47;;;;;;;21.05;8.45;;;;;;;11.25;76.68;99270.00;4876209;29;20559;-86
2022/10/29 07:43:15;;;;;;;21.38;8.25;;;;;;;11.35;76.77;99270.84;4875929;29;20052;-89
2022/10/29 07:45:48;;;;;;;22.02;12.55;;;;;;;11.55;76.41;99292.13;4862003;29;20045;-90
2022/10/29 07:48:14;;;;;;;20.27;7.95;;;;;;;11.37;76.41;99271.34;4875446;29;20136;-88
2022/10/29 07:51:01;;;;;;;15.95;8.32;;;;;;;11.49;76.36;99286.03;4875762;29;20088;-88
2022/10/29 07:53:32;;;;;;;17.13;8.43;;;;;;;11.57;76.33;99283.59;4867481;29;20060;-90
2022/10/29 07:56:00;;;;;;;17.23;7.95;;;;;;;11.42;76.28;99252.84;4856882;29;20041;-86
2022/10/29 07:58:26;;;;;;;18.20;9.13;;;;;;;11.32;76.16;99227.69;4858853;29;20057;-87
2022/10/29 08:01:02;;;;;;;16.67;8.33;;;;;;;11.45;76.08;99254.13;4864645;29;20045;-95
2022/10/29 08:04:29;;;;;;;18.20;8.30;;;;;;;11.66;75.89;99277.03;4888371;29;20498;-88
2022/10/29 08:06:55;;;;;;;19.13;9.77;;;;;;;11.60;75.91;99252.84;4936775;29;20039;-94
2022/10/29 08:09:54;;;;;;;18.47;8.77;;;;;;;11.43;75.77;99220.81;4952765;28;20047;-95
2022/10/29 08:12:21;;;;;;;19.33;7.75;;;;;;;11.56;75.78;99230.00;4913744;29;20112;-89
2022/10/29 08:14:47;;;;;;;22.27;10.10;;;;;;;11.74;75.99;99240.59;4881399;29;20533;-88
2022/10/29 08:17:38;;;;;;;22.13;10.03;;;;;;;11.85;75.48;99268.50;4895516;29;20057;-89
2022/10/29 08:20:04;;;;;;;25.70;9.02;;;;;;;11.56;75.90;99213.56;4917303;29;20103;-94
2022/10/29 08:22:31;;;;;;;18.83;8.57;;;;;;;11.57;75.75;99212.44;4915656;29;20043;-91
2022/10/29 08:24:57;;;;;;;35.03;15.10;;;;;;;11.56;76.31;99230.00;4935570;23;20058;-94
2022/10/29 08:27:24;;;;;;;22.02;10.52;;;;;;;11.53;76.41;99225.97;4937821;28;20061;-93
2022/10/29 08:30:05;;;;;;;21.73;10.25;;;;;;;11.70;76.88;99236.09;4947138;28;20038;-94
2022/10/29 08:32:31;;;;;;;24.23;11.18;;;;;;;11.64;76.85;99220.97;4962110;29;20099;-90
2022/10/29 08:34:57;;;;;;;30.48;13.80;;;;;;;11.50;77.50;99197.28;4943855;29;20138;-88
2022/10/29 08:37:31;;;;;;;31.67;15.95;;;;;;;11.61;77.34;99210.66;4932959;29;20485;-94
2022/10/29 08:40:47;;;;;;;23.80;10.23;;;;;;;11.68;77.46;99228.19;4949242;29;20050;-91
2022/10/29 08:44:03;;;;;;;26.30;10.32;;;;;;;11.64;77.70;99234.66;4960132;23;20055;-90
2022/10/29 08:46:51;;;;;;;25.83;9.65;;;;;;;11.63;77.98;99222.91;4911485;29;20111;-90
2022/10/29 08:49:54;;;;;;;17.98;9.02;;;;;;;11.55;78.04;99214.66;4911347;29;20046;-90
2022/10/29 08:52:39;;;;;;;27.67;13.05;;;;;;;11.28;78.36;99175.53;4933968;29;20043;-90
2022/10/29 08:55:39;;;;;;;32.97;14.45;;;;;;;11.49;78.66;99203.91;4906634;29;20050;-92
2022/10/29 08:58:18;;;;;;;24.92;13.13;;;;;;;11.52;78.95;99199.69;4958542;28;20047;-91
2022/10/29 09:00:51;;;;;;;17.92;9.10;;;;;;;11.14;78.53;99151.06;4948540;29;20066;-93
2022/10/29 09:03:19;;;;;;;25.55;12.15;;;;;;;10.97;78.93;99135.44;4932775;29;20103;-92
2022/10/29 09:06:10;;;;;;;17.45;8.25;;;;;;;11.36;78.71;99191.16;4918340;29;20118;-92
2022/10/29 09:09:03;;;;;;;28.52;13.07;;;;;;;11.22;78.57;99147.50;4912966;29;20056;-95
2022/10/29 09:11:53;;;;;;;15.23;8.13;;;;;;;11.00;78.62;99129.34;4907082;29;20043;-91
2022/10/29 09:14:31;;;;;;;24.02;10.43;;;;;;;11.32;79.40;99159.28;4903398;29;20050;-91
2022/10/29 09:17:24;;;;;;;18.58;8.30;;;;;;;10.97;79.01;99110.03;4910298;29;20052;-92
2022/10/29 09:20:24;;;;;;;21.20;8.48;;;;;;;10.93;79.15;99103.59;4891630;29;20043;-90
2022/10/29 09:23:29;;;;;;;22.42;9.45;;;;;;;11.36;79.84;99163.00;4918074;29;20506;-91
2022/10/29 09:26:19;;;;;;;17.23;8.43;;;;;;;11.42;79.98;99148.84;4909476;29;20589;-93
2022/10/29 09:29:06;;;;;;;17.15;8.55;;;;;;;11.14;79.73;99077.19;4930737;29;20050;-91
2022/10/29 09:31:52;;;;;;;24.00;9.40;;;;;;;11.32;79.21;99091.66;4899674;29;20517;-91
2022/10/29 09:34:49;;;;;;;17.10;8.50;;;;;;;11.35;79.33;99093.75;4919467;29;20058;-93
2022/10/29 09:37:19;;;;;;;21.33;9.20;;;;;;;11.39;79.54;99093.91;4901119;29;20043;-92
2022/10/29 09:39:46;;;;;;;20.17;8.95;;;;;;;11.51;78.88;99097.59;4932400;29;20051;-92
2022/10/29 09:42:19;;;;;;;21.88;10.07;;;;;;;11.36;79.16;99064.47;4916326;29;20066;-90
2022/10/29 09:44:57;;;;;;;19.38;9.15;;;;;;;11.49;78.58;99086.19;4913352;29;20048;-89
2022/10/29 09:47:55;;;;;;;18.02;8.43;;;;;;;11.59;78.61;99095.16;4908141;29;20044;-90
2022/10/29 09:50:34;;;;;;;20.42;9.50;;;;;;;11.74;79.05;99111.09;4916935;29;20043;-92
2022/10/29 09:53:02;;;;;;;17.83;9.05;;;;;;;11.61;77.98;99084.72;4920047;29;20055;-88
2022/10/29 09:55:52;;;;;;;19.33;10.27;;;;;;;11.64;78.70;99095.81;4939519;29;20051;-92
2022/10/29 09:58:22;;;;;;;23.08;10.05;;;;;;;11.52;78.57;99081.97;4902208;29;20059;-89
2022/10/29 10:00:50;;;;;;;20.05;10.18;;;;;;;11.45;78.34;99071.53;4934863;29;20091;-89
2022/10/29 10:03:46;;;;;;;19.40;10.63;;;;;;;11.20;78.59;99039.53;4916397;29;20106;-88
2022/10/29 10:06:15;;;;;;;24.20;11.05;;;;;;;11.56;78.87;99077.47;4925142;29;20625;-88
2022/10/29 10:09:04;;;;;;;22.50;11.65;;;;;;;11.74;78.63;99094.66;4916916;29;20054;-89
2022/10/29 10:11:39;;;;;;;24.25;11.40;;;;;;;11.38;78.30;99032.91;4900810;29;20036;-90
2022/10/29 10:14:17;;;;;;;29.08;11.98;;;;;;;11.63;78.56;99055.88;4897511;29;20043;-89
2022/10/29 10:16:45;;;;;;;23.77;11.80;;;;;;;11.65;78.01;99048.13;4937035;29;20035;-89
2022/10/29 10:19:26;;;;;;;32.03;15.38;;;;;;;11.66;78.57;99038.00;4916383;29;20138;-90
2022/10/29 10:22:04;;;;;;;30.13;13.07;;;;;;;11.70;78.19;99044.44;4909317;29;20259;-90
2022/10/29 10:24:34;;;;;;;30.50;14.30;;;;;;;11.73;78.11;99030.88;4901140;29;20043;-91
2022/10/29 10:27:17;;;;;;;26.20;12.63;;;;;;;11.85;77.78;99059.53;4934883;29;20066;-89
2022/10/29 10:30:41;;;;;;;21.85;12.35;;;;;;;11.55;77.72;99007.41;4916548;29;20071;-88
2022/10/29 10:33:25;;;;;;;29.85;12.25;;;;;;;11.87;77.45;99063.56;4903344;29;20047;-90
2022/10/29 10:36:22;;;;;;;24.80;11.95;;;;;;;11.88;77.79;99054.22;4906234;29;20075;-89
2022/10/29 10:38:59;;;;;;;26.25;12.27;;;;;;;11.47;77.67;98983.63;4895525;29;20055;-92
2022/10/29 10:41:54;;;;;;;24.65;13.32;;;;;;;11.98;77.47;99050.31;4912592;29;20044;-91
2022/10/29 10:44:26;;;;;;;26.25;13.15;;;;;;;11.79;77.11;99023.31;4898388;29;20052;-89
2022/10/29 10:46:54;;;;;;;30.45;13.57;;;;;;;11.95;77.30;99040.84;4870028;29;20047;-88
2022/10/29 10:49:32;;;;;;;29.67;13.57;;;;;;;11.93;77.04;99040.34;4898487;29;20043;-91
2022/10/29 10:52:14;;;;;;;27.42;13.95;;;;;;;11.60;77.57;98979.06;4882686;29;20047;-89
2022/10/29 10:55:06;;;;;;;28.88;14.27;;;;;;;11.96;77.25;99015.03;4905920;29;20490;-90
2022/10/29 10:57:49;;;;;;;29.10;13.88;;;;;;;11.76;76.95;98991.09;4896916;29;20074;-91
2022/10/29 11:00:20;;;;;;;27.25;14.13;;;;;;;11.85;76.65;98991.06;4898221;29;20055;-91
2022/10/29 11:03:11;;;;;;;38.03;16.42;;;;;;;11.96;76.92;99014.25;4865612;29;20043;-91
2022/10/29 11:06:17;;;;;;;35.00;14.70;;;;;;;12.09;76.66;99001.44;4897283;29;20817;-88
2022/10/29 11:09:11;;;;;;;32.17;14.35;;;;;;;11.67;76.00;98954.72;4911564;29;20108;-89
2022/10/29 11:15:53;;;;;;;36.90;14.25;;;;;;;11.89;76.26;98973.66;4901976;29;20541;-89
2022/10/29 11:18:56;;;;;;;36.85;14.63;;;;;;;11.96;75.94;98984.91;4869580;29;20044;-90
2022/10/29 11:21:52;;;;;;;36.70;15.90;;;;;;;12.05;75.87;98978.56;4897237;29;20044;-88
2022/10/29 11:24:43;;;;;;;35.72;15.35;;;;;;;12.07;75.32;98970.84;4866354;29;20099;-91
2022/10/29 11:27:22;;;;;;;37.72;16.45;;;;;;;11.91;75.84;98952.22;4865071;29;20043;-87
2022/10/29 11:30:27;;;;;;;37.25;16.88;;;;;;;11.75;75.71;98916.38;4874700;29;20471;-89
2022/10/29 11:33:08;;;;;;;38.58;17.50;;;;;;;12.04;75.71;98975.03;4903457;29;20047;-90
2022/10/29 11:35:44;;;;;;;40.17;17.38;;;;;;;11.81;75.88;98935.34;4879903;29;20063;-89
2022/10/29 11:38:13;;;;;;;40.80;16.25;;;;;;;11.94;75.94;98956.22;4911273;29;20044;-89
2022/10/29 11:41:03;;;;;;;39.75;17.90;;;;;;;11.83;76.07;98928.41;4911495;29;20060;-91
2022/10/29 11:43:31;;;;;;;39.97;17.10;;;;;;;11.65;76.07;98905.75;4913466;29;20040;-91
2022/10/29 11:46:07;;;;;;;34.42;16.45;;;;;;;11.76;76.63;98931.66;4883445;29;20047;-91
2022/10/29 11:48:40;;;;;;;35.15;17.35;;;;;;;11.83;76.42;98942.09;4867048;29;20051;-88
2022/10/29 11:51:20;;;;;;;40.55;17.23;;;;;;;11.74;75.85;98906.53;4915589;29;20554;-88
2022/10/29 11:54:22;;;;;;;39.78;18.50;;;;;;;12.08;76.16;98945.81;4881987;29;20425;-89
2022/10/29 11:56:58;;;;;;;36.70;16.42;;;;;;;11.79;75.44;98905.56;4913267;29;20046;-92
2022/10/29 12:00:20;;;;;;;34.40;17.02;;;;;;;12.02;76.35;98943.59;4867108;29;20282;-88
2022/10/29 12:03:42;;;;;;;47.05;20.45;;;;;;;11.99;76.00;98939.63;4898974;29;20048;-90
2022/10/29 12:06:35;;;;;;;45.75;19.80;;;;;;;11.96;76.70;98941.06;4899198;29;20055;-88
2022/10/29 12:09:32;;;;;;;38.55;17.60;;;;;;;11.91;76.90;98927.56;4895894;29;20048;-89
2022/10/29 12:12:41;;;;;;;33.95;16.42;;;;;;;11.68;76.85;98887.88;4899641;29;20134;-91
2022/10/29 12:15:13;;;;;;;36.08;16.20;;;;;;;11.88;77.26;98919.19;4912785;29;20044;-88
2022/10/29 12:17:53;;;;;;;38.63;16.85;;;;;;;11.95;77.11;98920.31;4914215;29;20051;-87
2022/10/29 12:20:37;;;;;;;37.22;16.23;;;;;;;11.73;76.60;98890.44;4918611;29;20812;-92
2022/10/29 12:23:28;;;;;;;37.17;17.30;;;;;;;11.97;76.42;98914.47;4889398;29;20039;-89
2022/10/29 12:26:24;;;;;;;34.75;16.75;;;;;;;11.61;76.73;98863.75;4900740;29;20072;-89
2022/10/29 12:29:02;;;;;;;31.63;15.77;;;;;;;11.80;76.58;98882.50;4866867;29;20044;-88
2022/10/29 12:31:37;;;;;;;36.53;15.88;;;;;;;11.72;76.26;98872.38;4917494;29;20040;-88
2022/10/29 12:34:53;;;;;;;45.05;19.05;;;;;;;11.77;76.37;98855.78;4879242;29;20519;-87
2022/10/29 12:37:26;;;;;;;34.03;16.65;;;;;;;11.79;76.09;98866.38;4872312;29;20418;-88
2022/10/29 12:39:59;;;;;;;37.78;17.15;;;;;;;11.77;76.04;98848.34;4899440;29;20048;-88
2022/10/29 12:42:29;;;;;;;35.50;16.52;;;;;;;11.73;76.19;98841.16;4918498;29;20039;-89
2022/10/29 12:45:14;;;;;;;31.20;14.20;;;;;;;11.94;76.23;98890.50;4917317;29;20525;-86